createdAt,value
2018-09-21T00:01:37.919Z,5.77
2018-09-21T00:04:11.206Z,5.97
2018-09-21T00:06:40.236Z,5.17
2018-09-21T00:09:10.644Z,4.77
2018-09-21T00:11:39.583Z,4.53
2018-09-21T00:14:08.552Z,5.20
2018-09-21T00:16:37.798Z,6.57
2018-09-21T00:19:06.724Z,6.33
2018-09-21T00:21:35.612Z,5.80
2018-09-21T00:24:04.617Z,4.70
2018-09-21T00:26:33.677Z,5.03
2018-09-21T00:29:02.544Z,5.57
2018-09-21T00:31:31.474Z,3.80
2018-09-21T00:34:00.345Z,5.60
2018-09-21T00:36:29.246Z,4.60
2018-09-21T00:38:58.218Z,6.70
2018-09-21T00:41:27.094Z,4.80
2018-09-21T00:43:56.340Z,5.77
2018-09-21T00:46:25.413Z,4.03
2018-09-21T00:48:54.366Z,7.57
2018-09-21T00:51:23.255Z,3.70
2018-09-21T00:53:52.128Z,3.77
2018-09-21T00:56:21.040Z,4.03
2018-09-21T00:58:49.920Z,6.83
2018-09-21T01:01:18.812Z,5.03
2018-09-21T01:03:47.696Z,4.70
2018-09-21T01:06:16.627Z,3.83
2018-09-21T01:08:45.525Z,5.93
2018-09-21T01:11:14.648Z,5.93
2018-09-21T01:13:43.560Z,6.60
2018-09-21T01:16:12.505Z,5.33
2018-09-21T01:18:41.538Z,6.03
2018-09-21T01:21:10.436Z,5.90
2018-09-21T01:23:39.404Z,6.00
2018-09-21T01:26:08.523Z,5.27
2018-09-21T01:28:37.845Z,6.17
2018-09-21T01:31:07.204Z,9.37
2018-09-21T01:33:36.092Z,6.60
2018-09-21T01:36:05.023Z,11.07
2018-09-21T01:38:33.915Z,4.93
2018-09-21T01:41:03.103Z,6.50
2018-09-21T01:43:32.355Z,6.00
2018-09-21T01:46:01.248Z,8.77
2018-09-21T01:48:30.184Z,3.70
2018-09-21T01:50:59.193Z,5.03
2018-09-21T01:53:28.503Z,4.43
2018-09-21T01:55:57.767Z,7.23
2018-09-21T01:58:26.946Z,4.53
2018-09-21T02:00:56.159Z,7.03
2018-09-21T02:03:25.040Z,4.63
2018-09-21T02:05:53.931Z,5.13
2018-09-21T02:08:23.139Z,4.53
2018-09-21T02:10:52.521Z,6.73
2018-09-21T02:13:21.420Z,4.00
2018-09-21T02:15:51.375Z,5.60
2018-09-21T02:18:20.678Z,4.60
2018-09-21T02:20:50.025Z,4.83
2018-09-21T02:23:19.228Z,9.07
2018-09-21T02:25:48.110Z,4.63
2018-09-21T02:28:17.030Z,5.00
2018-09-21T02:30:45.936Z,7.37
2018-09-21T02:33:15.115Z,7.00
2018-09-21T02:35:44.350Z,7.40
2018-09-21T02:38:13.640Z,6.77
2018-09-21T02:40:42.952Z,5.37
2018-09-21T02:43:12.133Z,8.50
2018-09-21T02:45:41.436Z,6.33
2018-09-21T02:48:10.376Z,5.10
2018-09-21T02:50:39.285Z,7.10
2018-09-21T02:53:08.241Z,6.60
2018-09-21T02:55:37.183Z,6.30
2018-09-21T02:58:06.107Z,7.50
2018-09-21T03:00:35.500Z,10.10
2018-09-21T03:03:04.612Z,7.57
2018-09-21T03:05:33.604Z,6.97
2018-09-21T03:08:02.568Z,6.83
2018-09-21T03:10:31.486Z,4.07
2018-09-21T03:13:00.464Z,6.80
2018-09-21T03:15:29.764Z,9.60
2018-09-21T03:17:59.048Z,4.70
2018-09-21T03:20:28.284Z,5.97
2018-09-21T03:22:57.447Z,5.80
2018-09-21T03:25:26.764Z,5.70
2018-09-21T03:27:55.763Z,9.43
2018-09-21T03:30:24.686Z,137.57
2018-09-21T03:32:53.665Z,14.33
2018-09-21T03:35:22.869Z,7.47
2018-09-21T03:37:51.774Z,6.90
2018-09-21T03:40:20.729Z,7.53
2018-09-21T03:42:49.647Z,9.17
2018-09-21T03:45:18.611Z,6.87
2018-09-21T03:47:47.508Z,10.60
2018-09-21T03:50:16.423Z,10.97
2018-09-21T03:52:45.393Z,7.50
2018-09-21T03:55:14.300Z,9.20
2018-09-21T03:57:43.208Z,9.90
2018-09-21T04:00:12.189Z,7.57
2018-09-21T04:02:41.066Z,8.87
2018-09-21T04:05:10.038Z,6.63
2018-09-21T04:07:38.945Z,9.43
2018-09-21T04:10:07.859Z,9.07
2018-09-21T04:12:36.756Z,9.10
2018-09-21T04:15:06.679Z,7.13
2018-09-21T04:17:35.644Z,13.47
2018-09-21T04:20:04.671Z,14.40
2018-09-21T04:22:33.897Z,16.03
2018-09-21T04:25:03.678Z,14.10
2018-09-21T04:27:33.888Z,8.03
2018-09-21T04:30:02.845Z,8.23
2018-09-21T04:32:31.987Z,12.60
2018-09-21T04:35:01.045Z,11.87
2018-09-21T04:37:30.327Z,11.57
2018-09-21T04:39:59.273Z,18.20
2018-09-21T04:42:28.189Z,20.37
2018-09-21T04:44:57.104Z,18.67
2018-09-21T04:47:25.988Z,21.93
2018-09-21T04:49:54.894Z,13.23
2018-09-21T04:52:23.908Z,28.13
2018-09-21T04:54:52.804Z,21.67
2018-09-21T04:57:21.799Z,19.57
2018-09-21T04:59:50.711Z,15.00
2018-09-21T05:02:19.801Z,15.13
2018-09-21T05:04:49.675Z,17.03
2018-09-21T05:07:18.564Z,25.40
2018-09-21T05:09:48.601Z,33.77
2018-09-21T05:12:17.505Z,19.03
2018-09-21T05:14:46.413Z,22.13
2018-09-21T05:17:15.300Z,19.87
2018-09-21T05:19:44.228Z,17.37
2018-09-21T05:22:13.140Z,16.63
2018-09-21T05:24:42.089Z,16.53
2018-09-21T05:27:10.988Z,30.23
2018-09-21T05:29:39.908Z,26.87
2018-09-21T05:32:08.812Z,13.63
2018-09-21T05:34:37.956Z,12.70
2018-09-21T05:37:06.916Z,23.60
2018-09-21T05:39:35.811Z,13.50
2018-09-21T05:42:04.779Z,9.10
2018-09-21T05:44:33.705Z,17.37
2018-09-21T05:47:02.703Z,13.53
2018-09-21T05:49:31.606Z,12.70
2018-09-21T05:52:00.488Z,8.27
2018-09-21T05:54:29.368Z,9.43
2018-09-21T05:56:58.320Z,16.23
2018-09-21T05:59:27.242Z,11.77
2018-09-21T06:01:56.155Z,9.37
2018-09-21T06:04:25.108Z,12.70
2018-09-21T06:06:54.023Z,13.93
2018-09-21T06:09:22.919Z,9.67
2018-09-21T06:11:51.805Z,15.80
2018-09-21T06:14:20.756Z,13.03
2018-09-21T06:16:49.704Z,12.83
2018-09-21T06:19:18.657Z,15.73
2018-09-21T06:21:47.677Z,11.17
2018-09-21T06:24:16.570Z,16.20
2018-09-21T06:26:45.565Z,8.37
2018-09-21T06:29:14.455Z,12.60
2018-09-21T06:31:43.432Z,8.73
2018-09-21T06:34:12.352Z,15.07
2018-09-21T06:36:41.225Z,10.30
2018-09-21T06:39:11.637Z,13.40
2018-09-21T06:41:40.661Z,13.67
2018-09-21T06:44:09.936Z,12.37
2018-09-21T06:46:38.896Z,16.17
2018-09-21T06:49:07.800Z,15.10
2018-09-21T06:51:36.727Z,15.07
2018-09-21T06:54:05.652Z,10.50
2018-09-21T06:56:34.567Z,13.17
2018-09-21T06:59:03.514Z,11.43
2018-09-21T07:01:32.538Z,14.50
2018-09-21T07:04:01.375Z,9.93
2018-09-21T07:06:30.300Z,15.73
2018-09-21T07:08:59.305Z,12.13
2018-09-21T07:11:28.238Z,15.57
2018-09-21T07:13:57.196Z,10.80
2018-09-21T07:16:26.076Z,11.73
2018-09-21T07:18:54.972Z,12.23
2018-09-21T07:21:23.956Z,10.27
2018-09-21T07:23:52.882Z,9.97
2018-09-21T07:26:21.788Z,11.47
2018-09-21T07:28:50.704Z,11.37
2018-09-21T07:31:19.660Z,10.53
2018-09-21T07:33:48.938Z,14.80
2018-09-21T07:36:18.007Z,13.80
2018-09-21T07:38:46.910Z,16.73
2018-09-21T07:41:15.808Z,13.00
2018-09-21T07:43:44.724Z,9.73
2018-09-21T07:46:13.640Z,11.43
2018-09-21T07:48:42.574Z,13.00
2018-09-21T07:51:11.559Z,14.20
2018-09-21T07:53:40.457Z,18.70
2018-09-21T07:56:09.364Z,11.80
2018-09-21T07:58:38.270Z,12.30
2018-09-21T08:01:07.196Z,11.50
2018-09-21T08:03:36.113Z,14.47
2018-09-21T08:06:05.007Z,17.27
2018-09-21T08:08:33.931Z,12.07
2018-09-21T08:11:02.823Z,14.13
2018-09-21T08:13:31.786Z,13.70
2018-09-21T08:16:00.687Z,18.63
2018-09-21T08:18:29.625Z,12.97
2018-09-21T08:20:58.639Z,14.33
2018-09-21T08:23:27.592Z,12.50
2018-09-21T08:25:56.527Z,20.00
2018-09-21T08:28:25.480Z,17.23
2018-09-21T08:30:54.443Z,13.93
2018-09-21T08:33:23.335Z,11.37
2018-09-21T08:35:52.438Z,13.77
2018-09-21T08:38:21.375Z,14.40
2018-09-21T08:40:50.238Z,13.60
2018-09-21T08:43:19.198Z,11.97
2018-09-21T08:45:48.419Z,15.60
2018-09-21T08:48:17.315Z,14.63
2018-09-21T08:50:46.227Z,14.27
2018-09-21T08:53:15.119Z,12.43
2018-09-21T08:55:43.995Z,12.93
2018-09-21T08:58:12.975Z,17.77
2018-09-21T09:00:41.861Z,11.70
2018-09-21T09:03:10.862Z,13.13
2018-09-21T09:05:39.879Z,24.93
2018-09-21T09:08:08.777Z,10.17
2018-09-21T09:10:37.652Z,10.93
2018-09-21T09:13:06.554Z,12.33
2018-09-21T09:15:35.559Z,10.53
2018-09-21T09:18:04.448Z,14.17
2018-09-21T09:20:33.360Z,10.33
2018-09-21T09:23:03.175Z,13.63
2018-09-21T09:25:32.194Z,15.57
2018-09-21T09:28:01.059Z,11.17
2018-09-21T09:30:30.017Z,12.57
2018-09-21T09:32:58.904Z,11.30
2018-09-21T09:35:27.889Z,9.87
2018-09-21T09:37:56.827Z,5.60
2018-09-21T09:40:25.727Z,8.37
2018-09-21T09:42:54.684Z,9.60
2018-09-21T09:45:23.589Z,7.57
2018-09-21T09:47:52.532Z,11.93
2018-09-21T09:50:21.436Z,11.30
2018-09-21T09:52:50.343Z,12.37
2018-09-21T09:55:19.283Z,6.47
2018-09-21T09:57:48.244Z,13.63
2018-09-21T10:00:21.216Z,14.57
2018-09-21T10:02:50.250Z,9.33
2018-09-21T10:05:19.230Z,7.50
2018-09-21T10:07:48.115Z,7.63
2018-09-21T10:10:17.048Z,8.27
2018-09-21T10:12:45.968Z,9.80
2018-09-21T10:15:14.985Z,7.77
2018-09-21T10:17:43.872Z,10.03
2018-09-21T10:20:12.821Z,13.10
2018-09-21T10:22:41.715Z,9.47
2018-09-21T10:25:10.580Z,6.10
2018-09-21T10:27:39.546Z,7.30
2018-09-21T10:30:08.493Z,5.60
2018-09-21T10:32:37.384Z,23.70
2018-09-21T10:35:06.256Z,9.40
2018-09-21T10:37:35.261Z,9.63
2018-09-21T10:40:04.277Z,9.10
2018-09-21T10:42:33.060Z,13.90
2018-09-21T10:45:02.066Z,6.60
2018-09-21T10:47:30.947Z,9.17
2018-09-21T10:49:59.878Z,8.83
2018-09-21T10:52:28.746Z,5.53
2018-09-21T10:54:58.132Z,16.50
2018-09-21T10:57:27.204Z,10.73
2018-09-21T10:59:56.096Z,9.93
2018-09-21T11:02:25.267Z,10.10
2018-09-21T11:04:54.211Z,12.87
2018-09-21T11:07:23.153Z,17.50
2018-09-21T11:09:52.097Z,17.23
2018-09-21T11:12:21.047Z,5.43
2018-09-21T11:14:49.920Z,8.20
2018-09-21T11:17:18.755Z,4.00
2018-09-21T11:19:47.611Z,12.70
2018-09-21T11:22:16.460Z,6.73
2018-09-21T11:24:45.364Z,6.47
2018-09-21T11:27:14.228Z,9.80
2018-09-21T11:29:43.080Z,9.53
2018-09-21T11:32:11.983Z,8.47
2018-09-21T11:34:40.932Z,8.07
2018-09-21T11:37:10.783Z,8.10
2018-09-21T11:39:39.645Z,6.53
2018-09-21T11:42:08.504Z,6.33
2018-09-21T11:44:37.438Z,5.30
2018-09-21T11:47:06.510Z,3.73
2018-09-21T11:49:35.484Z,4.67
2018-09-21T11:52:04.360Z,8.23
2018-09-21T11:54:33.260Z,4.53
2018-09-21T11:57:02.176Z,5.87
2018-09-21T11:59:31.184Z,8.70
2018-09-21T12:02:00.134Z,4.20
2018-09-21T12:04:29.000Z,4.80
2018-09-21T12:06:57.850Z,3.87
2018-09-21T12:09:26.771Z,4.23
2018-09-21T12:11:55.619Z,5.63
2018-09-21T12:14:24.476Z,4.50
2018-09-21T12:16:53.377Z,4.60
2018-09-21T12:19:22.258Z,10.97
2018-09-21T12:21:51.119Z,5.63
2018-09-21T12:24:20.114Z,3.77
2018-09-21T12:26:49.044Z,9.10
2018-09-21T12:29:17.947Z,11.83
2018-09-21T12:31:47.213Z,5.60
2018-09-21T12:34:16.093Z,4.10
2018-09-21T12:36:44.994Z,5.23
2018-09-21T12:39:14.942Z,4.43
2018-09-21T12:41:44.415Z,4.80
2018-09-21T12:44:14.908Z,4.70
2018-09-21T12:46:43.855Z,5.30
2018-09-21T12:49:12.732Z,2.77
2018-09-21T12:51:41.712Z,4.00
2018-09-21T12:54:10.579Z,4.57
2018-09-21T12:56:39.520Z,4.13
2018-09-21T12:59:08.508Z,4.67
2018-09-21T13:01:37.464Z,3.77
2018-09-21T13:04:06.335Z,3.43
2018-09-21T13:06:35.194Z,5.67
2018-09-21T13:09:05.480Z,7.63
2018-09-21T13:11:34.382Z,4.20
2018-09-21T13:14:03.322Z,7.27
2018-09-21T13:16:32.228Z,6.10
2018-09-21T13:19:01.174Z,4.87
2018-09-21T13:21:30.050Z,4.83
2018-09-21T13:23:58.964Z,4.93
2018-09-21T13:26:27.842Z,9.63
2018-09-21T13:28:56.722Z,4.37
2018-09-21T13:31:25.676Z,3.60
2018-09-21T13:33:54.540Z,4.43
2018-09-21T13:36:23.473Z,4.03
2018-09-21T13:38:52.359Z,3.40
2018-09-21T13:41:21.270Z,6.63
2018-09-21T13:43:50.226Z,4.33
2018-09-21T13:46:19.196Z,5.30
2018-09-21T13:48:48.170Z,2.53
2018-09-21T13:51:17.112Z,2.73
2018-09-21T13:53:45.998Z,3.17
2018-09-21T13:56:14.902Z,3.60
2018-09-21T13:58:43.847Z,6.10
2018-09-21T14:01:12.716Z,5.63
2018-09-21T14:03:41.591Z,5.00
2018-09-21T14:06:10.540Z,2.93
2018-09-21T14:08:39.416Z,3.27
2018-09-21T14:11:08.468Z,5.77
2018-09-21T14:13:37.350Z,7.80
2018-09-21T14:16:06.672Z,2.07
2018-09-21T14:18:35.669Z,5.23
2018-09-21T14:21:04.808Z,5.03
2018-09-21T14:23:33.711Z,4.73
2018-09-21T14:26:05.192Z,3.60
2018-09-21T14:28:34.110Z,6.53
2018-09-21T14:31:03.028Z,2.50
2018-09-21T14:33:32.072Z,3.10
2018-09-21T14:36:01.017Z,3.60
2018-09-21T14:38:29.940Z,6.57
2018-09-21T14:40:58.853Z,6.43
2018-09-21T14:43:27.780Z,4.57
2018-09-21T14:45:56.677Z,7.20
2018-09-21T14:48:25.707Z,5.53
2018-09-21T14:50:54.683Z,5.80
2018-09-21T14:53:23.548Z,4.53
2018-09-21T14:55:52.510Z,4.53
2018-09-21T14:58:21.387Z,5.97
2018-09-21T15:00:50.349Z,6.33
2018-09-21T15:03:19.274Z,5.57
2018-09-21T15:05:48.215Z,3.40
2018-09-21T15:08:17.164Z,7.27
2018-09-21T15:10:46.125Z,4.33
2018-09-21T15:13:15.021Z,9.00
2018-09-21T15:15:43.996Z,12.73
2018-09-21T15:18:12.891Z,4.90
2018-09-21T15:20:41.770Z,35.80
2018-09-21T15:23:10.691Z,18.73
2018-09-21T15:25:39.598Z,11.03
2018-09-21T15:28:08.554Z,35.30
2018-09-21T15:30:37.444Z,147.13
2018-09-21T15:33:06.368Z,412.53
2018-09-21T15:35:35.292Z,825.73
2018-09-21T15:38:04.260Z,142.37
2018-09-21T15:40:33.236Z,707.37
2018-09-21T15:43:02.215Z,434.87
2018-09-21T15:45:31.119Z,293.93
2018-09-21T15:48:00.021Z,543.23
2018-09-21T15:50:28.955Z,37.90
2018-09-21T15:52:57.860Z,133.87
2018-09-21T15:55:26.774Z,200.23
2018-09-21T15:57:55.773Z,348.73
2018-09-21T16:00:24.692Z,140.57
2018-09-21T16:02:53.591Z,26.77
2018-09-21T16:05:22.550Z,24.60
2018-09-21T16:07:51.446Z,65.23
2018-09-21T16:10:20.391Z,62.80
2018-09-21T16:12:49.437Z,87.87
2018-09-21T16:15:19.676Z,67.33
2018-09-21T16:17:48.573Z,20.53
2018-09-21T16:20:17.529Z,40.67
2018-09-21T16:22:46.924Z,25.53
2018-09-21T16:25:15.855Z,10.20
2018-09-21T16:27:44.756Z,11.33
2018-09-21T16:30:13.647Z,18.97
2018-09-21T16:32:42.703Z,23.67
2018-09-21T16:35:11.940Z,35.67
2018-09-21T16:37:41.180Z,31.63
2018-09-21T16:40:10.272Z,9.57
2018-09-21T16:42:39.663Z,11.23
2018-09-21T16:45:08.734Z,12.60
2018-09-21T16:47:37.669Z,10.13
2018-09-21T16:50:06.912Z,17.27
2018-09-21T16:52:35.985Z,13.80
2018-09-21T16:55:04.956Z,13.00
2018-09-21T16:57:33.941Z,14.47
2018-09-21T17:00:03.095Z,10.43
2018-09-21T17:02:32.136Z,12.30
2018-09-21T17:05:01.144Z,12.47
2018-09-21T17:07:30.144Z,12.60
2018-09-21T17:09:59.079Z,13.17
2018-09-21T17:12:28.014Z,10.23
2018-09-21T17:14:57.036Z,15.30
2018-09-21T17:17:25.997Z,14.47
2018-09-21T17:19:55.011Z,11.93
2018-09-21T17:22:24.000Z,8.30
2018-09-21T17:24:52.974Z,17.73
2018-09-21T17:27:21.889Z,8.10
2018-09-21T17:29:50.766Z,12.73
2018-09-21T17:32:19.640Z,13.67
2018-09-21T17:34:48.566Z,8.13
2018-09-21T17:37:17.476Z,5.60
2018-09-21T17:39:46.365Z,4.20
2018-09-21T17:42:15.304Z,7.37
2018-09-21T17:44:44.849Z,10.60
2018-09-21T17:47:13.739Z,26.73
2018-09-21T17:49:42.627Z,13.33
2018-09-21T17:52:11.632Z,12.90
2018-09-21T17:54:40.623Z,7.50
2018-09-21T17:57:09.579Z,12.30
2018-09-21T17:59:38.598Z,24.83
2018-09-21T18:02:07.794Z,28.70
2018-09-21T18:04:36.800Z,8.53
2018-09-21T18:07:05.720Z,18.17
2018-09-21T18:09:34.588Z,18.33
2018-09-21T18:12:03.492Z,11.57
2018-09-21T18:14:32.554Z,21.00
2018-09-21T18:17:01.443Z,18.00
2018-09-21T18:19:30.368Z,9.47
2018-09-21T18:21:59.331Z,16.20
2018-09-21T18:24:28.412Z,7.50
2018-09-21T18:26:57.352Z,9.57
2018-09-21T18:29:26.224Z,7.27
2018-09-21T18:31:55.105Z,7.13
2018-09-21T18:34:24.041Z,8.70
2018-09-21T18:36:52.972Z,9.60
2018-09-21T18:39:21.884Z,6.17
2018-09-21T18:41:50.757Z,9.07
2018-09-21T18:44:19.710Z,7.87
2018-09-21T18:46:49.015Z,4.37
2018-09-21T18:49:18.010Z,6.60
2018-09-21T18:51:46.922Z,7.90
2018-09-21T18:54:15.958Z,7.37
2018-09-21T18:56:45.280Z,6.33
2018-09-21T18:59:14.328Z,5.83
2018-09-21T19:01:43.233Z,5.90
2018-09-21T19:04:12.201Z,16.33
2018-09-21T19:06:41.107Z,15.93
2018-09-21T19:09:11.624Z,24.17
2018-09-21T19:11:40.602Z,10.30
2018-09-21T19:14:09.811Z,17.63
2018-09-21T19:16:38.708Z,17.83
2018-09-21T19:19:07.674Z,9.90
2018-09-21T19:21:36.819Z,13.77
2018-09-21T19:24:05.799Z,10.30
2018-09-21T19:26:34.798Z,14.77
2018-09-21T19:29:03.846Z,13.17
2018-09-21T19:31:32.723Z,12.30
2018-09-21T19:34:01.692Z,9.23
2018-09-21T19:36:30.608Z,6.37
2018-09-21T19:38:59.596Z,5.53
2018-09-21T19:41:28.483Z,7.27
2018-09-21T19:43:57.452Z,15.87
2018-09-21T19:46:26.460Z,20.17
2018-09-21T19:48:55.341Z,10.10
2018-09-21T19:51:24.290Z,6.93
2018-09-21T19:53:53.159Z,7.23
2018-09-21T19:56:22.075Z,13.63
2018-09-21T19:58:51.021Z,6.50
2018-09-21T20:01:19.909Z,6.73
2018-09-21T20:03:48.815Z,12.63
2018-09-21T20:06:17.717Z,8.47
2018-09-21T20:08:46.635Z,8.57
2018-09-21T20:11:15.582Z,4.50
2018-09-21T20:13:44.480Z,8.50
2018-09-21T20:16:13.360Z,6.47
2018-09-21T20:18:42.223Z,10.77
2018-09-21T20:21:11.192Z,7.07
2018-09-21T20:23:40.314Z,18.87
2018-09-21T20:26:09.532Z,10.73
2018-09-21T20:28:39.116Z,20.10
2018-09-21T20:31:13.171Z,11.10
2018-09-21T20:33:42.576Z,13.97
2018-09-21T20:36:11.555Z,8.57
2018-09-21T20:38:40.456Z,6.80
2018-09-21T20:41:09.429Z,13.80
2018-09-21T20:43:38.324Z,5.93
2018-09-21T20:46:07.218Z,8.70
2018-09-21T20:48:36.092Z,9.30
2018-09-21T20:51:05.401Z,8.63
2018-09-21T20:53:34.298Z,5.00
2018-09-21T20:56:03.188Z,5.07
2018-09-21T20:58:32.142Z,8.00
2018-09-21T21:01:01.064Z,9.93
2018-09-21T21:03:29.988Z,5.23
2018-09-21T21:05:58.903Z,6.03
2018-09-21T21:08:27.763Z,6.97
2018-09-21T21:10:56.671Z,6.77
2018-09-21T21:13:25.564Z,5.67
2018-09-21T21:15:54.487Z,3.67
2018-09-21T21:18:23.900Z,5.30
2018-09-21T21:20:52.981Z,8.93
2018-09-21T21:23:21.898Z,4.80
2018-09-21T21:25:50.768Z,7.90
2018-09-21T21:28:19.692Z,8.47
2018-09-21T21:30:48.598Z,7.60
2018-09-21T21:33:17.492Z,5.90
2018-09-21T21:35:46.450Z,7.77
2018-09-21T21:38:15.440Z,9.93
2018-09-21T21:40:44.400Z,7.27
2018-09-21T21:43:13.404Z,6.77
2018-09-21T21:45:42.310Z,6.77
2018-09-21T21:48:11.180Z,6.50
2018-09-21T21:50:40.096Z,6.63
2018-09-21T21:53:08.979Z,5.77
2018-09-21T21:55:37.887Z,5.53
2018-09-21T21:58:07.155Z,7.97
2018-09-21T22:00:42.211Z,6.30
2018-09-21T22:03:11.115Z,10.47
2018-09-21T22:05:40.047Z,5.93
2018-09-21T22:08:08.917Z,6.30
2018-09-21T22:10:37.833Z,7.13
2018-09-21T22:13:11.879Z,4.67
2018-09-21T22:15:40.840Z,5.10
2018-09-21T22:18:09.762Z,10.40
2018-09-21T22:20:38.730Z,6.90
2018-09-21T22:23:07.705Z,6.70
2018-09-21T22:25:36.609Z,8.07
2018-09-21T22:28:05.875Z,6.47
2018-09-21T22:30:34.908Z,4.83
2018-09-21T22:33:03.940Z,6.47
2018-09-21T22:35:32.891Z,8.50
2018-09-21T22:38:01.764Z,6.20
2018-09-21T22:40:30.681Z,5.90
2018-09-21T22:42:59.723Z,6.77
2018-09-21T22:45:28.675Z,6.73
2018-09-21T22:47:57.625Z,6.13
2018-09-21T22:50:26.584Z,7.30
2018-09-21T22:52:55.474Z,6.63
2018-09-21T22:55:24.460Z,5.93
2018-09-21T22:57:53.339Z,5.80
2018-09-21T23:00:22.281Z,5.30
2018-09-21T23:02:51.168Z,6.97
2018-09-21T23:05:20.044Z,5.90
2018-09-21T23:07:49.044Z,6.77
2018-09-21T23:10:17.947Z,6.27
2018-09-21T23:12:46.858Z,8.00
2018-09-21T23:15:15.792Z,4.50
2018-09-21T23:17:44.729Z,4.30
2018-09-21T23:20:13.612Z,5.80
2018-09-21T23:22:42.883Z,8.67
2018-09-21T23:25:11.849Z,7.03
2018-09-21T23:27:40.799Z,4.73
2018-09-21T23:30:09.740Z,6.20
2018-09-21T23:32:38.626Z,6.67
2018-09-21T23:35:07.539Z,6.77
2018-09-21T23:37:36.436Z,7.50
2018-09-21T23:40:05.487Z,5.57
2018-09-21T23:42:34.424Z,7.83
2018-09-21T23:45:03.404Z,5.87
2018-09-21T23:47:32.380Z,6.87
2018-09-21T23:50:01.267Z,6.50
2018-09-21T23:52:30.161Z,5.40
2018-09-21T23:54:59.036Z,5.10
2018-09-21T23:57:27.895Z,5.80
2018-09-21T23:59:56.835Z,5.17
